createdAt,value
2017-07-23T00:01:00.173Z,0
2017-07-23T00:02:01.910Z,0
2017-07-23T00:03:03.648Z,0
2017-07-23T00:04:05.310Z,0
2017-07-23T00:05:07.018Z,0
2017-07-23T00:06:23.531Z,0
2017-07-23T00:07:25.330Z,0
2017-07-23T00:08:26.988Z,0
2017-07-23T00:09:28.723Z,0
2017-07-23T00:10:30.460Z,0
2017-07-23T00:11:32.178Z,0
2017-07-23T00:12:33.890Z,0
2017-07-23T00:13:35.655Z,0
2017-07-23T00:14:37.363Z,0
2017-07-23T00:15:39.050Z,0
2017-07-23T00:16:40.777Z,0
2017-07-23T00:17:42.609Z,0
2017-07-23T00:18:44.325Z,0
2017-07-23T00:19:47.129Z,0
2017-07-23T00:20:48.781Z,0
2017-07-23T00:21:50.517Z,0
2017-07-23T00:22:52.244Z,0
2017-07-23T00:23:54.008Z,0
2017-07-23T00:24:55.734Z,0
2017-07-23T00:25:59.492Z,0
2017-07-23T00:27:01.237Z,0
2017-07-23T00:28:03.906Z,0
2017-07-23T00:29:05.631Z,0
2017-07-23T00:30:07.371Z,0
2017-07-23T00:31:09.094Z,0
2017-07-23T00:32:10.844Z,0
2017-07-23T00:33:12.575Z,0
2017-07-23T00:34:14.340Z,0
2017-07-23T00:35:15.998Z,0
2017-07-23T00:36:17.728Z,0
2017-07-23T00:37:19.473Z,0
2017-07-23T00:38:21.275Z,0
2017-07-23T00:39:22.997Z,0
2017-07-23T00:40:24.759Z,0
2017-07-23T00:41:26.498Z,0
2017-07-23T00:42:28.320Z,0
2017-07-23T00:43:30.057Z,0
2017-07-23T00:44:31.820Z,0
2017-07-23T00:45:33.476Z,0
2017-07-23T00:46:36.243Z,0
2017-07-23T00:47:37.963Z,0
2017-07-23T00:48:39.694Z,0
2017-07-23T00:49:41.406Z,0
2017-07-23T00:50:43.217Z,0
2017-07-23T00:51:44.952Z,0
2017-07-23T00:52:46.727Z,0
2017-07-23T00:53:48.461Z,0
2017-07-23T00:54:50.231Z,0
2017-07-23T00:55:51.957Z,0
2017-07-23T00:56:53.710Z,0
2017-07-23T00:57:55.371Z,0
2017-07-23T00:58:57.122Z,0
2017-07-23T00:59:58.842Z,0
2017-07-23T01:01:00.597Z,0
2017-07-23T01:02:02.312Z,0
2017-07-23T01:03:04.083Z,0
2017-07-23T01:04:05.794Z,0
2017-07-23T01:05:07.605Z,0
2017-07-23T01:06:09.322Z,0
2017-07-23T01:07:11.099Z,0
2017-07-23T01:08:12.831Z,0
2017-07-23T01:09:14.572Z,0
2017-07-23T01:10:16.224Z,0
2017-07-23T01:11:17.988Z,0
2017-07-23T01:12:19.710Z,0
2017-07-23T01:13:21.468Z,0
2017-07-23T01:14:23.168Z,0
2017-07-23T01:15:25.949Z,0
2017-07-23T01:16:27.672Z,0
2017-07-23T01:17:29.486Z,0
2017-07-23T01:18:31.209Z,0
2017-07-23T01:19:32.976Z,0
2017-07-23T01:20:34.690Z,0
2017-07-23T01:21:36.437Z,0
2017-07-23T01:22:38.091Z,0
2017-07-23T01:23:39.798Z,0
2017-07-23T01:24:41.566Z,0
2017-07-23T01:25:43.305Z,0
2017-07-23T01:26:45.043Z,0
2017-07-23T01:27:46.813Z,0
2017-07-23T01:28:48.649Z,0
2017-07-23T01:29:50.378Z,0
2017-07-23T01:30:52.163Z,0
2017-07-23T01:31:53.879Z,0
2017-07-23T01:32:55.591Z,0
2017-07-23T01:33:57.308Z,0
2017-07-23T01:34:59.137Z,0
2017-07-23T01:36:00.857Z,0
2017-07-23T01:37:02.623Z,0
2017-07-23T01:38:04.334Z,0
2017-07-23T01:39:06.117Z,0
2017-07-23T01:40:07.859Z,0
2017-07-23T01:41:09.626Z,0
2017-07-23T01:42:11.354Z,0
2017-07-23T01:43:13.091Z,0
2017-07-23T01:44:14.810Z,0
2017-07-23T01:45:16.628Z,0
2017-07-23T01:46:18.334Z,0
2017-07-23T01:47:20.054Z,0
2017-07-23T01:48:21.766Z,0
2017-07-23T01:49:24.482Z,0
2017-07-23T01:50:26.147Z,0
2017-07-23T01:51:27.905Z,0
2017-07-23T01:52:29.642Z,0
2017-07-23T01:53:31.409Z,0
2017-07-23T01:54:33.139Z,0
2017-07-23T01:55:34.904Z,0
2017-07-23T01:56:36.627Z,0
2017-07-23T01:57:38.340Z,0
2017-07-23T01:58:40.046Z,0
2017-07-23T01:59:41.814Z,0
2017-07-23T02:00:43.540Z,0
2017-07-23T02:01:45.350Z,0
2017-07-23T02:02:47.000Z,0
2017-07-23T02:03:48.749Z,0
2017-07-23T02:04:50.401Z,0
2017-07-23T02:05:52.133Z,0
2017-07-23T02:06:53.864Z,0
2017-07-23T02:07:55.625Z,0
2017-07-23T02:08:57.342Z,0
2017-07-23T02:09:59.064Z,0
2017-07-23T02:11:00.786Z,0
2017-07-23T02:12:02.457Z,0
2017-07-23T02:13:04.178Z,0
2017-07-23T02:14:05.931Z,0
2017-07-23T02:15:07.635Z,0
2017-07-23T02:16:09.414Z,0
2017-07-23T02:17:11.135Z,0
2017-07-23T02:18:12.907Z,0
2017-07-23T02:19:14.558Z,0
2017-07-23T02:20:16.319Z,0
2017-07-23T02:21:18.055Z,0
2017-07-23T02:22:19.795Z,0
2017-07-23T02:23:21.521Z,0
2017-07-23T02:24:23.237Z,0
2017-07-23T02:25:24.950Z,0
2017-07-23T02:26:26.808Z,0
2017-07-23T02:27:28.525Z,0
2017-07-23T02:28:30.249Z,0
2017-07-23T02:29:32.032Z,0
2017-07-23T02:30:33.802Z,0
2017-07-23T02:31:35.534Z,0
2017-07-23T02:32:37.260Z,0
2017-07-23T02:33:38.981Z,0
2017-07-23T02:34:40.720Z,0
2017-07-23T02:35:42.448Z,0
2017-07-23T02:36:44.257Z,0
2017-07-23T02:37:45.974Z,0
2017-07-23T02:38:47.754Z,0
2017-07-23T02:39:49.500Z,0
2017-07-23T02:40:51.240Z,0
2017-07-23T02:41:52.988Z,0
2017-07-23T02:42:54.743Z,0
2017-07-23T02:43:56.457Z,0
2017-07-23T02:44:58.243Z,0
2017-07-23T02:45:59.958Z,0
2017-07-23T02:47:01.665Z,0
2017-07-23T02:48:03.385Z,0
2017-07-23T02:49:05.129Z,0
2017-07-23T02:50:06.855Z,0
2017-07-23T02:51:08.665Z,0
2017-07-23T02:52:10.318Z,0
2017-07-23T02:53:12.147Z,0
2017-07-23T02:54:13.864Z,0
2017-07-23T02:55:15.612Z,0
2017-07-23T02:56:17.333Z,0
2017-07-23T02:57:19.119Z,0
2017-07-23T02:58:20.843Z,0
2017-07-23T02:59:23.629Z,0
2017-07-23T03:00:25.353Z,0
2017-07-23T03:01:27.126Z,0
2017-07-23T03:02:28.838Z,0
2017-07-23T03:03:30.631Z,0
2017-07-23T03:04:32.278Z,0
2017-07-23T03:05:34.011Z,0
2017-07-23T03:06:35.723Z,0
2017-07-23T03:07:37.505Z,0
2017-07-23T03:08:39.226Z,0
2017-07-23T03:09:40.975Z,4
2017-07-23T03:10:42.696Z,4
2017-07-23T03:11:44.490Z,4
2017-07-23T03:12:46.204Z,4
2017-07-23T03:13:47.927Z,4
2017-07-23T03:14:49.641Z,4
2017-07-23T03:15:51.386Z,8
2017-07-23T03:16:53.045Z,4
2017-07-23T03:17:54.884Z,8
2017-07-23T03:18:56.616Z,8
2017-07-23T03:19:58.376Z,8
2017-07-23T03:21:00.095Z,8
2017-07-23T03:22:01.807Z,8
2017-07-23T03:23:03.523Z,8
2017-07-23T03:24:05.195Z,8
2017-07-23T03:25:06.909Z,8
2017-07-23T03:26:08.699Z,12
2017-07-23T03:27:10.412Z,12
2017-07-23T03:28:12.188Z,12
2017-07-23T03:29:13.839Z,16
2017-07-23T03:30:16.610Z,12
2017-07-23T03:31:18.264Z,12
2017-07-23T03:32:19.995Z,16
2017-07-23T03:33:21.719Z,16
2017-07-23T03:34:23.489Z,16
2017-07-23T03:35:25.205Z,16
2017-07-23T03:36:26.944Z,16
2017-07-23T03:37:28.664Z,12
2017-07-23T03:38:30.382Z,16
2017-07-23T03:39:32.160Z,16
2017-07-23T03:40:33.946Z,20
2017-07-23T03:41:35.659Z,16
2017-07-23T03:42:37.433Z,16
2017-07-23T03:43:39.084Z,16
2017-07-23T03:44:40.825Z,12
2017-07-23T03:45:42.544Z,12
2017-07-23T03:46:44.319Z,12
2017-07-23T03:47:46.038Z,12
2017-07-23T03:48:48.756Z,8
2017-07-23T03:49:50.466Z,8
2017-07-23T03:50:52.164Z,8
2017-07-23T03:51:53.883Z,4
2017-07-23T03:52:55.624Z,4
2017-07-23T03:53:57.343Z,8
2017-07-23T03:54:59.117Z,12
2017-07-23T03:56:00.845Z,24
2017-07-23T03:57:02.616Z,36
2017-07-23T03:58:04.268Z,40
2017-07-23T03:59:06.635Z,40
2017-07-23T04:00:08.406Z,44
2017-07-23T04:01:10.176Z,56
2017-07-23T04:02:11.997Z,68
2017-07-23T04:03:13.712Z,80
2017-07-23T04:04:15.500Z,92
2017-07-23T04:05:17.210Z,100
2017-07-23T04:06:19.955Z,104
2017-07-23T04:07:21.612Z,96
2017-07-23T04:08:23.373Z,76
2017-07-23T04:09:25.122Z,64
2017-07-23T04:10:26.909Z,56
2017-07-23T04:11:28.645Z,48
2017-07-23T04:12:30.293Z,44
2017-07-23T04:13:32.022Z,40
2017-07-23T04:14:33.731Z,36
2017-07-23T04:15:35.468Z,32
2017-07-23T04:16:37.185Z,28
2017-07-23T04:17:38.907Z,28
2017-07-23T04:18:40.706Z,24
2017-07-23T04:19:43.207Z,24
2017-07-23T04:20:45.007Z,24
2017-07-23T04:21:46.726Z,24
2017-07-23T04:22:48.492Z,24
2017-07-23T04:23:50.248Z,28
2017-07-23T04:24:51.993Z,28
2017-07-23T04:25:53.709Z,24
2017-07-23T04:26:55.471Z,28
2017-07-23T04:27:57.190Z,24
2017-07-23T04:28:58.915Z,24
2017-07-23T04:30:00.633Z,24
2017-07-23T04:31:02.507Z,28
2017-07-23T04:32:04.236Z,32
2017-07-23T04:33:06.096Z,28
2017-07-23T04:34:07.843Z,28
2017-07-23T04:35:09.698Z,28
2017-07-23T04:36:11.449Z,32
2017-07-23T04:37:13.304Z,32
2017-07-23T04:38:15.038Z,32
2017-07-23T04:39:16.916Z,36
2017-07-23T04:40:18.594Z,32
2017-07-23T04:41:20.376Z,40
2017-07-23T04:42:22.120Z,48
2017-07-23T04:43:23.884Z,56
2017-07-23T04:44:25.726Z,60
2017-07-23T04:45:27.636Z,60
2017-07-23T04:46:29.367Z,60
2017-07-23T04:47:31.095Z,52
2017-07-23T04:48:32.775Z,56
2017-07-23T04:49:34.576Z,56
2017-07-23T04:50:36.395Z,72
2017-07-23T04:51:38.199Z,92
2017-07-23T04:52:39.961Z,92
2017-07-23T04:53:41.701Z,128
2017-07-23T04:54:43.451Z,152
2017-07-23T04:55:45.304Z,172
2017-07-23T04:56:47.024Z,204
2017-07-23T04:57:49.899Z,228
2017-07-23T04:58:51.666Z,224
2017-07-23T04:59:53.497Z,224
2017-07-23T05:00:55.231Z,232
2017-07-23T05:01:57.072Z,272
2017-07-23T05:02:58.840Z,316
2017-07-23T05:04:01.734Z,332
2017-07-23T05:05:03.520Z,368
2017-07-23T05:06:05.308Z,392
2017-07-23T05:07:07.187Z,436
2017-07-23T05:08:09.010Z,488
2017-07-23T05:09:10.884Z,576
2017-07-23T05:10:12.737Z,616
2017-07-23T05:11:14.529Z,660
2017-07-23T05:12:16.334Z,684
2017-07-23T05:13:18.053Z,752
2017-07-23T05:14:35.883Z,852
2017-07-23T05:15:37.910Z,1020
2017-07-23T05:16:44.422Z,1180
2017-07-23T05:17:46.336Z,1232
2017-07-23T05:19:02.869Z,1308
2017-07-23T05:20:04.741Z,1468
2017-07-23T05:42:28.392Z,1204
2017-07-23T05:43:30.179Z,1092
2017-07-23T05:44:31.913Z,1080
2017-07-23T05:45:33.723Z,1072
2017-07-23T05:46:35.510Z,1152
2017-07-23T05:47:37.274Z,1236
2017-07-23T05:48:39.034Z,1508
2017-07-23T05:49:40.928Z,1832
2017-07-23T05:50:42.686Z,1884
2017-07-23T05:51:44.515Z,1836
2017-07-23T05:52:46.259Z,1660
2017-07-23T05:53:49.092Z,1660
2017-07-23T05:54:50.781Z,1684
2017-07-23T05:55:52.595Z,1656
2017-07-23T05:56:54.342Z,1724
2017-07-23T05:57:56.245Z,1824
2017-07-23T05:58:58.003Z,1868
2017-07-23T06:00:00.822Z,1824
2017-07-23T06:01:02.555Z,1692
2017-07-23T06:02:04.298Z,1684
2017-07-23T06:03:06.043Z,1692
2017-07-23T06:04:07.840Z,1636
2017-07-23T06:05:09.631Z,1720
2017-07-23T06:06:11.387Z,1860
2017-07-23T06:07:13.115Z,2012
2017-07-23T06:08:15.873Z,2124
2017-07-23T06:09:17.620Z,2260
2017-07-23T06:10:19.394Z,2396
2017-07-23T06:11:21.156Z,2336
2017-07-23T06:12:22.922Z,2384
2017-07-23T06:13:24.603Z,2300
2017-07-23T06:14:27.414Z,2176
2017-07-23T06:15:29.142Z,2072
2017-07-23T06:16:32.965Z,1808
2017-07-23T06:17:34.689Z,1652
2017-07-23T06:18:36.395Z,1532
2017-07-23T06:19:38.111Z,1412
2017-07-23T06:20:39.975Z,1356
2017-07-23T06:21:41.736Z,1364
2017-07-23T06:22:43.552Z,1376
2017-07-23T06:23:45.327Z,1312
2017-07-23T06:24:47.137Z,1212
2017-07-23T06:25:48.892Z,1140
2017-07-23T06:26:50.579Z,1140
2017-07-23T06:27:52.297Z,1120
2017-07-23T06:28:54.167Z,1096
2017-07-23T06:29:55.897Z,1076
2017-07-23T06:30:57.624Z,1108
2017-07-23T06:31:59.309Z,1116
2017-07-23T06:33:01.136Z,1112
2017-07-23T06:34:02.859Z,1132
2017-07-23T06:35:04.629Z,1308
2017-07-23T06:36:06.346Z,1484
2017-07-23T06:37:08.078Z,1652
2017-07-23T06:38:09.821Z,1720
2017-07-23T06:39:11.490Z,1552
2017-07-23T06:40:13.209Z,1432
2017-07-23T06:41:15.019Z,1284
2017-07-23T06:42:16.753Z,1216
2017-07-23T06:43:18.541Z,1140
2017-07-23T06:44:20.195Z,1088
2017-07-23T06:45:21.943Z,1048
2017-07-23T06:46:23.658Z,1016
2017-07-23T06:47:25.430Z,1000
2017-07-23T06:48:27.150Z,1000
2017-07-23T06:49:28.942Z,996
2017-07-23T06:50:30.668Z,1176
2017-07-23T06:51:32.357Z,1028
2017-07-23T06:52:34.092Z,1020
2017-07-23T06:53:36.868Z,1020
2017-07-23T06:54:38.582Z,1104
2017-07-23T06:55:40.343Z,1244
2017-07-23T06:56:42.030Z,1148
2017-07-23T06:57:43.845Z,1460
2017-07-23T06:58:45.585Z,1192
2017-07-23T06:59:48.366Z,1080
2017-07-23T07:00:50.074Z,1084
2017-07-23T07:01:51.805Z,1568
2017-07-23T07:02:53.532Z,1444
2017-07-23T07:03:55.561Z,1280
2017-07-23T07:04:57.229Z,1736
2017-07-23T07:05:59.052Z,2048
2017-07-23T07:07:00.786Z,1880
2017-07-23T07:08:03.570Z,2672
2017-07-23T07:09:05.305Z,2512
2017-07-23T07:10:07.065Z,2272
2017-07-23T07:11:08.787Z,2024
2017-07-23T07:12:10.575Z,2020
2017-07-23T07:13:12.302Z,2688
2017-07-23T07:14:14.026Z,2628
2017-07-23T07:15:15.732Z,2656
2017-07-23T07:16:17.562Z,2596
2017-07-23T07:17:19.284Z,2712
2017-07-23T07:18:21.062Z,2724
2017-07-23T07:19:22.783Z,2720
2017-07-23T07:20:24.488Z,2396
2017-07-23T07:21:26.219Z,2444
2017-07-23T07:22:28.047Z,2520
2017-07-23T07:23:29.765Z,2380
2017-07-23T07:24:31.547Z,2524
2017-07-23T07:25:33.254Z,2704
2017-07-23T07:26:35.045Z,2720
2017-07-23T07:27:36.762Z,2548
2017-07-23T07:28:38.529Z,2684
2017-07-23T07:29:40.243Z,2788
2017-07-23T07:30:42.024Z,2944
2017-07-23T07:31:43.753Z,3080
2017-07-23T07:32:45.538Z,2968
2017-07-23T07:33:47.257Z,3144
2017-07-23T07:34:49.016Z,3240
2017-07-23T07:35:50.748Z,3252
2017-07-23T07:36:52.523Z,3080
2017-07-23T07:37:54.272Z,2716
2017-07-23T07:38:56.022Z,2432
2017-07-23T07:39:57.748Z,2288
2017-07-23T07:40:59.535Z,2228
2017-07-23T07:42:01.264Z,2200
2017-07-23T07:43:04.802Z,2176
2017-07-23T07:44:06.644Z,2140
2017-07-23T07:45:08.297Z,2064
2017-07-23T07:46:10.039Z,2060
2017-07-23T07:47:11.763Z,2132
2017-07-23T07:48:13.551Z,2192
2017-07-23T07:49:15.279Z,2116
2017-07-23T07:50:16.978Z,2204
2017-07-23T07:51:18.703Z,2284
2017-07-23T07:52:21.548Z,2284
2017-07-23T07:53:23.269Z,2264
2017-07-23T07:54:26.069Z,2284
2017-07-23T07:55:27.723Z,2360
2017-07-23T07:56:29.560Z,2328
2017-07-23T07:57:31.277Z,2320
2017-07-23T07:58:33.044Z,2368
2017-07-23T07:59:34.777Z,2336
2017-07-23T08:00:36.486Z,2320
2017-07-23T08:01:38.209Z,2424
2017-07-23T08:02:40.053Z,2284
2017-07-23T08:03:41.780Z,2080
2017-07-23T08:04:45.578Z,1932
2017-07-23T08:05:47.250Z,1700
2017-07-23T08:06:49.110Z,1544
2017-07-23T08:07:50.865Z,1460
2017-07-23T08:08:53.588Z,1332
2017-07-23T08:09:55.317Z,1280
2017-07-23T08:10:57.024Z,1196
2017-07-23T08:11:58.750Z,1088
2017-07-23T08:13:00.403Z,956
2017-07-23T08:14:02.132Z,844
2017-07-23T08:15:03.877Z,808
2017-07-23T08:16:05.594Z,780
2017-07-23T08:17:07.372Z,816
2017-07-23T08:18:09.052Z,944
2017-07-23T08:19:10.869Z,1108
2017-07-23T08:20:12.594Z,1184
2017-07-23T08:21:14.364Z,1112
2017-07-23T08:22:16.106Z,1240
2017-07-23T08:23:19.841Z,1176
2017-07-23T08:24:21.569Z,1204
2017-07-23T08:25:23.380Z,1604
2017-07-23T08:26:25.099Z,1380
2017-07-23T08:27:26.893Z,1284
2017-07-23T08:28:28.602Z,1208
2017-07-23T08:29:30.372Z,1196
2017-07-23T08:30:32.024Z,1540
2017-07-23T08:31:33.763Z,1164
2017-07-23T08:32:35.513Z,1712
2017-07-23T08:33:37.268Z,1368
2017-07-23T08:34:39.038Z,1324
2017-07-23T08:35:40.810Z,1976
2017-07-23T08:36:42.550Z,1792
2017-07-23T08:37:44.353Z,1860
2017-07-23T08:38:46.088Z,2152
2017-07-23T08:39:47.855Z,2000
2017-07-23T08:40:49.509Z,2068
2017-07-23T08:41:52.275Z,1788
2017-07-23T08:42:53.993Z,1676
2017-07-23T08:43:55.770Z,2332
2017-07-23T08:44:57.492Z,2484
2017-07-23T08:45:59.259Z,2200
2017-07-23T08:47:01.095Z,1980
2017-07-23T08:48:02.839Z,2268
2017-07-23T08:49:04.562Z,2020
2017-07-23T08:50:07.336Z,2340
2017-07-23T08:51:09.062Z,2536
2017-07-23T08:52:10.838Z,2576
2017-07-23T08:53:12.566Z,2828
2017-07-23T08:54:14.330Z,2344
2017-07-23T08:55:16.088Z,2348
2017-07-23T08:56:18.800Z,2128
2017-07-23T08:57:20.526Z,2040
2017-07-23T08:58:22.342Z,2352
2017-07-23T08:59:24.065Z,2596
2017-07-23T09:00:25.858Z,3300
2017-07-23T09:01:27.538Z,2776
2017-07-23T09:02:30.356Z,2336
2017-07-23T09:03:32.092Z,1984
2017-07-23T09:04:33.854Z,2200
2017-07-23T09:05:35.571Z,1968
2017-07-23T09:06:38.317Z,1852
2017-07-23T09:07:40.065Z,1816
2017-07-23T09:08:41.872Z,1776
2017-07-23T09:09:43.606Z,1576
2017-07-23T09:10:45.412Z,1544
2017-07-23T09:11:47.115Z,1688
2017-07-23T09:12:48.889Z,2108
2017-07-23T09:13:50.624Z,2192
2017-07-23T09:14:53.394Z,2368
2017-07-23T09:15:55.150Z,1840
2017-07-23T09:16:56.916Z,1420
2017-07-23T09:17:58.643Z,1076
2017-07-23T09:19:00.464Z,864
2017-07-23T09:20:02.196Z,828
2017-07-23T09:21:03.983Z,1044
2017-07-23T09:22:05.640Z,968
2017-07-23T09:23:07.466Z,1012
2017-07-23T09:24:09.193Z,936
2017-07-23T09:25:10.965Z,1232
2017-07-23T09:26:12.736Z,1752
2017-07-23T09:27:14.455Z,2572
2017-07-23T09:28:16.224Z,2516
2017-07-23T09:29:17.956Z,3216
2017-07-23T09:30:19.682Z,3528
2017-07-23T09:31:21.511Z,3180
2017-07-23T09:32:23.180Z,3084
2017-07-23T09:33:24.996Z,2104
2017-07-23T09:34:26.726Z,1576
2017-07-23T09:35:28.497Z,1544
2017-07-23T09:36:30.248Z,1608
2017-07-23T09:37:31.945Z,1164
2017-07-23T09:38:33.667Z,900
2017-07-23T09:39:35.489Z,796
2017-07-23T09:40:37.208Z,672
2017-07-23T09:41:38.978Z,792
2017-07-23T09:42:40.684Z,1364
2017-07-23T09:43:42.484Z,1808
2017-07-23T09:44:44.198Z,2128
2017-07-23T09:45:47.003Z,1880
2017-07-23T09:46:48.731Z,1984
2017-07-23T09:47:50.472Z,1476
2017-07-23T09:48:52.198Z,1648
2017-07-23T09:49:53.994Z,2232
2017-07-23T09:50:55.790Z,2568
2017-07-23T09:51:57.702Z,2656
2017-07-23T09:52:59.465Z,3008
2017-07-23T09:54:01.319Z,3056
2017-07-23T09:55:03.045Z,2808
2017-07-23T09:56:04.826Z,2784
2017-07-23T09:57:06.531Z,2020
2017-07-23T09:58:08.275Z,1560
2017-07-23T09:59:09.998Z,1176
2017-07-23T10:00:11.782Z,1156
2017-07-23T10:01:13.465Z,1004
2017-07-23T10:02:16.286Z,916
2017-07-23T10:03:18.019Z,952
2017-07-23T10:04:19.757Z,836
2017-07-23T10:05:21.484Z,1240
2017-07-23T10:06:23.263Z,1892
2017-07-23T10:07:25.000Z,1904
2017-07-23T10:08:26.730Z,2036
2017-07-23T10:09:28.490Z,1696
2017-07-23T10:10:30.279Z,1388
2017-07-23T10:11:32.007Z,1264
2017-07-23T10:12:33.777Z,1344
2017-07-23T10:13:35.433Z,1496
2017-07-23T10:14:37.195Z,1232
2017-07-23T10:15:38.909Z,1376
2017-07-23T10:16:41.698Z,1316
2017-07-23T10:17:43.411Z,1100
2017-07-23T10:18:45.097Z,1088
2017-07-23T10:19:46.822Z,1120
2017-07-23T10:20:48.696Z,1088
2017-07-23T10:21:50.444Z,1228
2017-07-23T10:22:52.256Z,1096
2017-07-23T10:23:53.915Z,1152
2017-07-23T10:24:55.643Z,1300
2017-07-23T10:25:57.369Z,1456
2017-07-23T10:26:59.153Z,1568
2017-07-23T10:28:00.886Z,1596
2017-07-23T10:29:02.577Z,1312
2017-07-23T10:30:04.314Z,964
2017-07-23T10:31:06.174Z,688
2017-07-23T10:32:07.883Z,520
2017-07-23T10:33:09.633Z,440
2017-07-23T10:34:11.324Z,608
2017-07-23T10:35:13.130Z,744
2017-07-23T10:36:14.785Z,856
2017-07-23T10:37:16.614Z,1044
2017-07-23T10:38:18.343Z,1188
2017-07-23T10:39:20.115Z,1356
2017-07-23T10:40:21.829Z,1612
2017-07-23T10:41:23.616Z,1996
2017-07-23T10:42:25.333Z,2176
2017-07-23T10:43:27.108Z,2252
2017-07-23T10:44:28.896Z,2096
2017-07-23T10:45:30.712Z,1872
2017-07-23T10:46:32.425Z,1680
2017-07-23T10:47:34.201Z,1588
2017-07-23T10:48:35.999Z,1516
2017-07-23T10:49:38.753Z,1336
2017-07-23T10:50:40.466Z,1144
2017-07-23T10:51:42.214Z,1076
2017-07-23T10:52:43.986Z,1088
2017-07-23T10:53:45.696Z,1448
2017-07-23T10:54:47.437Z,1952
2017-07-23T10:55:49.167Z,2272
2017-07-23T10:56:50.969Z,2280
2017-07-23T10:57:52.696Z,1900
2017-07-23T10:58:54.463Z,1628
2017-07-23T10:59:56.229Z,1452
2017-07-23T11:00:58.087Z,1424
2017-07-23T11:01:59.830Z,1468
2017-07-23T11:03:01.632Z,1516
2017-07-23T11:04:03.353Z,1772
2017-07-23T11:05:05.014Z,1940
2017-07-23T11:06:06.741Z,2096
2017-07-23T11:07:08.590Z,2132
2017-07-23T11:08:10.324Z,2132
2017-07-23T11:09:12.073Z,2100
2017-07-23T11:10:13.739Z,2060
2017-07-23T11:11:15.548Z,2164
2017-07-23T11:12:17.276Z,2516
2017-07-23T11:13:19.024Z,2868
2017-07-23T11:14:20.749Z,3088
2017-07-23T11:15:22.576Z,3052
2017-07-23T11:16:24.298Z,2892
2017-07-23T11:17:26.117Z,2712
2017-07-23T11:18:27.848Z,2616
2017-07-23T11:19:29.660Z,2360
2017-07-23T11:20:31.326Z,2368
2017-07-23T11:21:33.108Z,2188
2017-07-23T11:22:34.879Z,2140
2017-07-23T11:23:36.736Z,1916
2017-07-23T11:24:38.464Z,1504
2017-07-23T11:25:40.140Z,1332
2017-07-23T11:26:41.867Z,1368
2017-07-23T11:27:43.736Z,1552
2017-07-23T11:28:45.485Z,1748
2017-07-23T11:29:47.299Z,1912
2017-07-23T11:30:49.111Z,2040
2017-07-23T11:31:51.033Z,2232
2017-07-23T11:32:52.782Z,2392
2017-07-23T11:33:54.560Z,2436
2017-07-23T11:34:56.458Z,2520
2017-07-23T11:35:58.335Z,2700
2017-07-23T11:37:00.144Z,2880
2017-07-23T11:38:02.913Z,3008
2017-07-23T11:39:04.650Z,3084
2017-07-23T11:40:06.512Z,3140
2017-07-23T11:41:08.973Z,3116
2017-07-23T11:42:10.837Z,3136
2017-07-23T11:43:13.465Z,3136
2017-07-23T11:44:15.204Z,3080
2017-07-23T11:45:17.048Z,3048
2017-07-23T11:46:19.796Z,2988
2017-07-23T11:47:21.557Z,3000
2017-07-23T11:48:23.481Z,3112
2017-07-23T11:49:25.207Z,3196
2017-07-23T11:50:27.045Z,3296
2017-07-23T11:51:28.827Z,3572
2017-07-23T11:52:31.639Z,3444
2017-07-23T11:53:33.373Z,3384
2017-07-23T11:54:35.145Z,3292
2017-07-23T11:55:36.890Z,3256
2017-07-23T11:56:38.587Z,3240
2017-07-23T11:57:40.313Z,3236
2017-07-23T11:59:56.060Z,3132
2017-07-23T12:00:58.827Z,3012
2017-07-23T12:02:00.553Z,2768
2017-07-23T12:03:02.320Z,2628
2017-07-23T12:04:04.042Z,2904
2017-07-23T12:05:06.828Z,2740
2017-07-23T12:06:08.543Z,2700
2017-07-23T12:07:10.373Z,2540
2017-07-23T12:08:12.111Z,2552
2017-07-23T12:09:13.838Z,2912
2017-07-23T12:10:15.569Z,2724
2017-07-23T12:11:17.327Z,2484
2017-07-23T12:12:18.990Z,2024
2017-07-23T12:13:20.819Z,1940
2017-07-23T12:14:22.544Z,1780
2017-07-23T12:15:24.333Z,1968
2017-07-23T12:16:26.015Z,2116
2017-07-23T12:17:27.745Z,2096
2017-07-23T12:18:29.456Z,1772
2017-07-23T12:19:31.212Z,1636
2017-07-23T12:20:32.932Z,1444
2017-07-23T12:21:34.714Z,1292
2017-07-23T12:22:36.516Z,1236
2017-07-23T12:23:38.295Z,1164
2017-07-23T12:24:40.025Z,1096
2017-07-23T12:25:41.789Z,1060
2017-07-23T12:26:43.518Z,1092
2017-07-23T12:27:45.254Z,1132
2017-07-23T12:28:47.063Z,1032
2017-07-23T12:29:48.893Z,996
2017-07-23T12:30:50.636Z,960
2017-07-23T12:31:52.377Z,964
2017-07-23T12:32:54.034Z,984
2017-07-23T12:33:55.932Z,936
2017-07-23T12:34:57.662Z,1032
2017-07-23T12:35:59.478Z,948
2017-07-23T12:37:01.195Z,996
2017-07-23T12:38:02.961Z,1028
2017-07-23T12:39:04.693Z,1036
2017-07-23T12:40:07.496Z,1176
2017-07-23T12:41:09.221Z,1264
2017-07-23T12:42:10.991Z,1520
2017-07-23T12:43:12.640Z,1588
2017-07-23T12:44:14.374Z,1324
2017-07-23T12:45:16.093Z,1388
2017-07-23T12:46:17.960Z,1532
2017-07-23T12:47:19.692Z,1752
2017-07-23T12:48:21.358Z,2232
2017-07-23T12:49:23.078Z,2100
2017-07-23T12:50:24.868Z,2084
2017-07-23T12:51:26.614Z,1928
2017-07-23T12:52:28.365Z,1560
2017-07-23T12:53:30.068Z,1312
2017-07-23T12:54:31.812Z,1252
2017-07-23T12:55:33.463Z,1308
2017-07-23T12:56:35.238Z,1168
2017-07-23T12:57:36.990Z,1064
2017-07-23T12:58:38.749Z,948
2017-07-23T12:59:40.489Z,1000
2017-07-23T13:00:42.170Z,1232
2017-07-23T13:01:43.885Z,1448
2017-07-23T13:02:45.632Z,1604
2017-07-23T13:03:47.377Z,1812
2017-07-23T13:04:49.146Z,2104
2017-07-23T13:05:50.869Z,2144
2017-07-23T13:06:52.625Z,2388
2017-07-23T13:07:54.282Z,2572
2017-07-23T13:08:56.141Z,2736
2017-07-23T13:09:57.863Z,2920
2017-07-23T13:10:59.667Z,2912
2017-07-23T13:12:01.406Z,2624
2017-07-23T13:13:03.210Z,2412
2017-07-23T13:14:04.969Z,2256
2017-07-23T13:15:06.706Z,2048
2017-07-23T13:16:08.425Z,1936
2017-07-23T13:17:10.221Z,1780
2017-07-23T13:18:11.976Z,1608
2017-07-23T13:19:13.799Z,1484
2017-07-23T13:20:15.515Z,1524
2017-07-23T13:21:17.232Z,1560
2017-07-23T13:22:18.982Z,1664
2017-07-23T13:23:20.797Z,1692
2017-07-23T13:24:22.527Z,1776
2017-07-23T13:25:25.315Z,1952
2017-07-23T13:26:26.976Z,2104
2017-07-23T13:27:28.801Z,2192
2017-07-23T13:28:30.540Z,2192
2017-07-23T13:29:34.003Z,2460
2017-07-23T13:30:35.805Z,2624
2017-07-23T13:31:37.528Z,2496
2017-07-23T13:32:39.251Z,2192
2017-07-23T13:33:41.245Z,1912
2017-07-23T13:34:42.975Z,1708
2017-07-23T13:35:44.799Z,1664
2017-07-23T13:36:46.452Z,1548
2017-07-23T13:37:48.222Z,1424
2017-07-23T13:38:49.880Z,1452
2017-07-23T13:39:51.682Z,1448
2017-07-23T13:40:53.405Z,1572
2017-07-23T13:41:55.174Z,1632
2017-07-23T13:42:56.892Z,1704
2017-07-23T13:43:58.619Z,1696
2017-07-23T13:45:00.341Z,1600
2017-07-23T13:46:02.200Z,1436
2017-07-23T13:47:04.082Z,1424
2017-07-23T13:48:05.866Z,2020
2017-07-23T13:49:07.589Z,1688
2017-07-23T13:50:09.361Z,1428
2017-07-23T13:51:11.081Z,1540
2017-07-23T13:52:12.795Z,1424
2017-07-23T13:53:14.533Z,1368
2017-07-23T13:54:16.346Z,1600
2017-07-23T13:55:18.108Z,1952
2017-07-23T13:56:19.867Z,1700
2017-07-23T13:57:21.599Z,1668
2017-07-23T13:58:23.341Z,1768
2017-07-23T13:59:25.076Z,1816
2017-07-23T14:00:26.836Z,1840
2017-07-23T14:01:28.560Z,1972
2017-07-23T14:02:30.353Z,2404
2017-07-23T14:03:34.101Z,2256
2017-07-23T14:04:37.935Z,1948
2017-07-23T14:05:39.693Z,2304
2017-07-23T14:06:41.416Z,1964
2017-07-23T14:07:43.162Z,1792
2017-07-23T14:08:45.968Z,1904
2017-07-23T14:09:47.684Z,1944
2017-07-23T14:10:54.183Z,1880
2017-07-23T14:11:55.788Z,1792
2017-07-23T14:12:58.569Z,1692
2017-07-23T14:14:00.318Z,1636
2017-07-23T14:15:02.195Z,1708
2017-07-23T14:16:03.908Z,2044
2017-07-23T14:17:05.599Z,2256
2017-07-23T14:18:07.322Z,2316
2017-07-23T14:19:09.171Z,2148
2017-07-23T14:20:10.898Z,1908
2017-07-23T14:21:12.634Z,1800
2017-07-23T14:22:14.343Z,1740
2017-07-23T14:23:16.131Z,1768
2017-07-23T14:24:17.861Z,1780
2017-07-23T14:25:20.670Z,1680
2017-07-23T14:26:22.402Z,1556
2017-07-23T14:27:25.113Z,1332
2017-07-23T14:28:26.824Z,1152
2017-07-23T14:29:34.532Z,1036
2017-07-23T14:30:36.294Z,1176
2017-07-23T14:31:39.020Z,1392
2017-07-23T14:32:40.766Z,1316
2017-07-23T14:33:42.522Z,1500
2017-07-23T14:34:44.174Z,1852